Time;durP1;ratioP1;P1;durP2;ratioP2;P2;SDS_P1;SDS_P2;PMS_P1;PMS_P2;Temp;Humidity;BMP_temperature;BMP_pressure;BME280_temperature;BME280_humidity;BME280_pressure;Samples;Min_cycle;Max_cycle;Signal;HPM_P1;HPM_P2
2020/12/14 00:00:13;;;;;;;;;;;;;;;4.07;91.14;98382.41;5075969;28;19915;-79
2020/12/14 00:02:39;;;;;;;;;;;;;;;4.00;91.10;98379.09;5108772;28;20411;-78
2020/12/14 00:05:04;;;;;;;;;;;;;;;4.04;92.32;98375.66;5109144;28;19916;-79
2020/12/14 00:07:30;;;;;;;;;;;;;;;4.17;89.46;98378.81;5109811;28;19957;-79
2020/12/14 00:09:55;;;;;;;;;;;;;;;4.06;90.24;98379.00;5092648;28;19912;-79
2020/12/14 00:12:20;;;;;;;;;;;;;;;4.07;91.47;98380.69;5109395;28;19957;-78
2020/12/14 00:14:46;;;;;;;;;;;;;;;4.13;90.16;98387.41;5090333;28;19923;-77
2020/12/14 00:17:11;;;;;;;;;;;;;;;4.10;90.03;98380.63;5072868;28;19938;-78
2020/12/14 00:19:36;;;;;;;;;;;;;;;4.07;90.97;98388.31;5090853;28;19968;-77
2020/12/14 00:22:01;;;;;;;;;;;;;;;4.08;90.81;98381.50;5108814;28;20448;-78
2020/12/14 00:24:27;;;;;;;;;;;;;;;4.13;90.23;98367.84;5090732;28;19930;-78
2020/12/14 00:26:52;;;;;;;;;;;;;;;4.12;89.85;98378.06;5108276;28;20271;-80
2020/12/14 00:29:20;;;;;;;;;;;;;;;4.08;90.47;98366.22;5091264;28;19919;-78
2020/12/14 00:31:51;;;;;;;;;;;;;;;4.08;89.68;98369.63;5108404;28;19912;-78
2020/12/14 00:34:17;;;;;;;;;;;;;;;4.13;91.12;98359.38;5091750;28;19923;-77
2020/12/14 00:36:43;;;;;;;;;;;;;;;4.08;90.25;98359.44;5089786;28;19915;-78
2020/12/14 00:39:09;;;;;;;;;;;;;;;4.04;90.60;98359.50;5088508;28;19923;-78
2020/12/14 00:41:34;;;;;;;;;;;;;;;4.13;88.96;98354.28;5107692;28;20372;-80
2020/12/14 00:43:59;;;;;;;;;;;;;;;4.08;89.92;98369.63;5091789;27;19915;-80
2020/12/14 00:46:25;;;;;;;;;;;;;;;4.10;89.99;98362.78;5110652;27;19915;-78
2020/12/14 00:48:50;;;;;;;;;;;;;;;4.09;89.85;98353.47;5093216;27;19969;-78
2020/12/14 00:51:15;;;;;;;;;;;;;;;4.10;89.72;98360.22;5128538;27;19915;-78
2020/12/14 00:53:43;;;;;;;;;;;;;;;4.15;89.38;98362.72;5128711;27;19935;-78
2020/12/14 00:56:08;;;;;;;;;;;;;;;4.12;89.46;98363.59;5110831;27;20001;-78
2020/12/14 00:58:34;;;;;;;;;;;;;;;4.16;88.43;98362.69;5110877;27;20052;-78
2020/12/14 01:01:00;;;;;;;;;;;;;;;4.15;89.51;98363.56;5110376;27;19923;-77
2020/12/14 01:03:25;;;;;;;;;;;;;;;4.23;88.81;98377.91;5110731;27;19915;-78
2020/12/14 01:05:51;;;;;;;;;;;;;;;4.25;88.52;98371.06;5110249;27;19929;-78
2020/12/14 01:08:17;;;;;;;;;;;;;;;4.27;87.91;98361.69;5092220;27;19915;-78
2020/12/14 01:10:46;;;;;;;;;;;;;;;4.28;88.24;98360.81;5110218;27;19990;-78
2020/12/14 01:13:11;;;;;;;;;;;;;;;4.29;89.00;98362.47;5110886;27;19934;-77
2020/12/14 01:15:37;;;;;;;;;;;;;;;4.32;88.49;98350.53;5093938;27;20364;-78
2020/12/14 01:18:02;;;;;;;;;;;;;;;4.35;87.36;98360.66;5110172;27;19975;-78
2020/12/14 01:20:27;;;;;;;;;;;;;;;4.41;86.95;98344.44;5128079;27;20412;-78
2020/12/14 01:22:52;;;;;;;;;;;;;;;4.39;87.17;98349.56;5109832;27;20326;-78
2020/12/14 01:25:18;;;;;;;;;;;;;;;4.38;88.35;98336.84;5105911;27;21148;-78
2020/12/14 01:27:43;;;;;;;;;;;;;;;4.42;87.34;98332.53;5127444;27;19966;-78
2020/12/14 01:30:08;;;;;;;;;;;;;;;4.40;87.14;98337.63;5109964;27;19915;-78
2020/12/14 01:32:34;;;;;;;;;;;;;;;4.37;87.84;98330.06;5109432;27;19919;-78
2020/12/14 01:34:59;;;;;;;;;;;;;;;4.39;86.99;98311.31;5108658;27;19911;-78
2020/12/14 01:37:24;;;;;;;;;;;;;;;4.39;88.38;98311.31;5107630;27;19911;-78
2020/12/14 01:39:49;;;;;;;;;;;;;;;4.48;86.74;98305.22;5107517;27;19969;-78
2020/12/14 01:42:15;;;;;;;;;;;;;;;4.45;87.38;98309.50;5110687;27;19918;-78
2020/12/14 01:44:40;;;;;;;;;;;;;;;4.43;87.52;98319.75;5092203;27;19919;-78
2020/12/14 01:47:05;;;;;;;;;;;;;;;4.49;87.15;98317.06;5127348;27;20006;-78
2020/12/14 01:49:30;;;;;;;;;;;;;;;4.45;87.40;98295.09;5108715;27;19919;-78
2020/12/14 01:51:56;;;;;;;;;;;;;;;4.46;87.40;98294.19;5108879;27;19990;-77
2020/12/14 01:54:22;;;;;;;;;;;;;;;4.51;87.32;98300.03;5127658;27;20292;-78
2020/12/14 01:56:48;;;;;;;;;;;;;;;4.50;87.62;98308.56;5126814;27;19915;-78
2020/12/14 01:59:13;;;;;;;;;;;;;;;4.58;86.50;98303.31;5107954;28;20703;-78
2020/12/14 02:01:38;;;;;;;;;;;;;;;4.57;86.97;98299.94;5109056;28;19919;-78
2020/12/14 02:04:04;;;;;;;;;;;;;;;4.56;87.31;98298.28;5108394;27;19920;-78
2020/12/14 02:06:29;;;;;;;;;;;;;;;4.63;85.79;98293.03;5109195;28;20280;-78
2020/12/14 02:08:54;;;;;;;;;;;;;;;4.58;86.91;98286.34;5109439;28;20280;-78
2020/12/14 02:11:20;;;;;;;;;;;;;;;4.76;84.70;98299.56;5109045;28;20006;-78
2020/12/14 02:13:45;;;;;;;;;;;;;;;4.74;85.04;98286.84;5108677;28;19911;-77
2020/12/14 02:16:10;;;;;;;;;;;;;;;4.77;85.11;98291.06;5107802;28;19920;-77
2020/12/14 02:18:36;;;;;;;;;;;;;;;4.83;83.90;98290.94;5106766;28;20356;-78
2020/12/14 02:21:01;;;;;;;;;;;;;;;4.86;83.92;98279.81;5107584;28;19916;-77
2020/12/14 02:23:26;;;;;;;;;;;;;;;4.86;83.85;98295.13;5107263;28;20002;-78
2020/12/14 02:25:52;;;;;;;;;;;;;;;5.05;82.05;98290.50;5108100;28;19958;-78
2020/12/14 02:28:17;;;;;;;;;;;;;;;4.92;83.95;98284.81;5108006;28;19918;-78
2020/12/14 02:30:42;;;;;;;;;;;;;;;4.91;84.31;98289.06;5091765;28;19911;-78
2020/12/14 02:33:08;;;;;;;;;;;;;;;4.95;84.43;98275.38;5108223;28;19911;-78
2020/12/14 02:35:33;;;;;;;;;;;;;;;4.95;84.01;98265.19;5107854;28;19967;-77
2020/12/14 02:37:58;;;;;;;;;;;;;;;4.97;84.62;98263.44;5108405;28;20006;-78
2020/12/14 02:40:24;;;;;;;;;;;;;;;4.92;86.12;98270.31;5124061;28;20380;-78
2020/12/14 02:42:49;;;;;;;;;;;;;;;5.04;83.60;98253.94;5091987;28;19924;-78
2020/12/14 02:45:14;;;;;;;;;;;;;;;5.09;84.02;98267.44;5108014;28;20265;-78
2020/12/14 02:47:40;;;;;;;;;;;;;;;5.10;83.60;98256.34;5128913;27;20002;-78
2020/12/14 02:50:05;;;;;;;;;;;;;;;5.14;83.29;98249.47;5130484;27;19915;-77
2020/12/14 02:52:30;;;;;;;;;;;;;;;5.19;82.73;98251.03;5110543;27;20007;-77
2020/12/14 02:54:55;;;;;;;;;;;;;;;5.13;83.55;98253.75;5110415;27;20016;-78
2020/12/14 02:57:21;;;;;;;;;;;;;;;5.21;82.69;98248.44;5130289;27;19920;-77
2020/12/14 02:59:46;;;;;;;;;;;;;;;5.14;83.10;98249.47;5130648;27;19912;-77
2020/12/14 03:02:11;;;;;;;;;;;;;;;5.20;82.39;98249.31;5112261;27;20337;-78
2020/12/14 03:04:36;;;;;;;;;;;;;;;5.12;83.22;98235.91;5111373;27;19919;-77
2020/12/14 03:07:02;;;;;;;;;;;;;;;5.13;83.23;98235.00;5128815;27;20447;-78
2020/12/14 03:09:27;;;;;;;;;;;;;;;5.12;83.11;98238.44;5110338;27;20934;-77
2020/12/14 03:11:53;;;;;;;;;;;;;;;5.11;84.36;98224.84;5110028;27;19998;-77
2020/12/14 03:14:18;;;;;;;;;;;;;;;5.07;83.64;98228.34;5109766;27;19915;-77
2020/12/14 03:16:47;;;;;;;;;;;;;;;5.11;83.10;98226.53;5109662;27;20399;-77
2020/12/14 03:19:12;;;;;;;;;;;;;;;5.06;84.63;98210.50;5128112;27;19912;-78
2020/12/14 03:21:38;;;;;;;;;;;;;;;5.05;84.03;98224.16;5112387;27;19922;-78
2020/12/14 03:24:03;;;;;;;;;;;;;;;5.05;83.30;98224.97;5130093;27;20376;-78
2020/12/14 03:26:28;;;;;;;;;;;;;;;5.09;83.47;98230.88;5111398;27;19915;-78
2020/12/14 03:28:54;;;;;;;;;;;;;;;5.08;83.75;98245.31;5111354;27;19919;-78
2020/12/14 03:31:19;;;;;;;;;;;;;;;5.02;83.48;98237.81;5113177;27;19916;-78
2020/12/14 03:33:45;;;;;;;;;;;;;;;5.02;84.16;98242.91;5133249;27;19915;-78
2020/12/14 03:36:10;;;;;;;;;;;;;;;5.06;84.57;98251.34;5133921;27;19911;-78
2020/12/14 03:38:35;;;;;;;;;;;;;;;5.03;83.91;98247.97;5114741;27;20002;-77
2020/12/14 03:41:04;;;;;;;;;;;;;;;5.07;83.44;98253.03;5111089;27;20295;-78
2020/12/14 03:43:29;;;;;;;;;;;;;;;5.00;84.43;98253.16;5111336;27;20392;-77
2020/12/14 03:45:54;;;;;;;;;;;;;;;5.03;84.77;98255.63;5075913;28;19967;-76
2020/12/14 03:48:20;;;;;;;;;;;;;;;5.01;84.56;98254.81;5107119;28;19923;-78
2020/12/14 03:50:46;;;;;;;;;;;;;;;4.97;84.64;98248.13;5089121;28;19923;-78
2020/12/14 03:53:11;;;;;;;;;;;;;;;5.00;85.57;98242.13;5089716;28;20011;-78
2020/12/14 03:55:37;;;;;;;;;;;;;;;5.02;84.53;98231.00;5089380;28;20468;-77
2020/12/14 03:58:02;;;;;;;;;;;;;;;5.00;85.29;98227.63;5105324;28;20444;-78
2020/12/14 04:00:27;;;;;;;;;;;;;;;4.99;85.39;98228.50;5087745;28;19916;-78
2020/12/14 04:02:52;;;;;;;;;;;;;;;4.97;85.26;98229.41;5088682;28;19916;-78
2020/12/14 04:05:18;;;;;;;;;;;;;;;5.01;85.98;98238.69;5090399;28;19951;-78
2020/12/14 04:07:43;;;;;;;;;;;;;;;5.03;86.09;98232.66;5090733;28;19916;-78
2020/12/14 04:10:08;;;;;;;;;;;;;;;5.05;84.94;98226.69;5090483;28;20361;-78
2020/12/14 04:12:33;;;;;;;;;;;;;;;5.00;86.02;98193.63;5108132;28;20012;-78
2020/12/14 04:14:59;;;;;;;;;;;;;;;5.03;86.53;98226.72;5108433;28;19994;-78
2020/12/14 04:17:24;;;;;;;;;;;;;;;5.02;86.13;98215.69;5107483;28;19916;-78
2020/12/14 04:19:49;;;;;;;;;;;;;;;5.08;86.06;98217.25;5107629;28;19989;-78
2020/12/14 04:22:15;;;;;;;;;;;;;;;5.07;86.88;98227.50;5108012;28;20207;-78
2020/12/14 04:24:40;;;;;;;;;;;;;;;4.95;86.90;98216.69;5107373;28;19916;-77
2020/12/14 04:27:05;;;;;;;;;;;;;;;4.99;86.98;98220.84;5088623;28;19995;-77
2020/12/14 04:29:31;;;;;;;;;;;;;;;5.07;86.40;98224.97;5106996;28;19972;-77
2020/12/14 04:31:56;;;;;;;;;;;;;;;5.04;87.13;98228.41;5090056;28;20006;-78
2020/12/14 04:34:21;;;;;;;;;;;;;;;5.09;87.30;98225.75;5090145;28;20284;-78
2020/12/14 04:36:47;;;;;;;;;;;;;;;5.02;87.73;98225.91;5089760;28;20351;-78
2020/12/14 04:39:12;;;;;;;;;;;;;;;5.05;87.96;98221.59;5089752;28;20544;-78
2020/12/14 04:41:38;;;;;;;;;;;;;;;5.10;88.19;98227.44;5087886;28;19945;-79
2020/12/14 04:44:04;;;;;;;;;;;;;;;5.13;88.01;98232.47;5091859;27;20265;-78
2020/12/14 04:46:29;;;;;;;;;;;;;;;5.14;88.32;98229.03;5108837;27;19950;-78
2020/12/14 04:48:55;;;;;;;;;;;;;;;5.17;88.36;98227.25;5108795;27;20295;-78
2020/12/14 04:51:20;;;;;;;;;;;;;;;5.15;88.91;98230.72;5110584;27;19943;-78
2020/12/14 04:53:45;;;;;;;;;;;;;;;5.26;88.40;98233.84;5109883;27;19926;-78
2020/12/14 04:56:11;;;;;;;;;;;;;;;5.33;88.51;98237.94;5109733;27;20023;-78
2020/12/14 04:58:37;;;;;;;;;;;;;;;5.29;88.81;98243.16;5109502;27;19911;-78
2020/12/14 05:01:03;;;;;;;;;;;;;;;5.42;88.38;98232.63;5108376;27;20032;-78
2020/12/14 05:03:29;;;;;;;;;;;;;;;5.38;88.75;98237.84;5110701;27;20005;-77
2020/12/14 05:05:54;;;;;;;;;;;;;;;5.38;88.89;98223.38;5128632;27;20048;-78
2020/12/14 05:08:28;;;;;;;;;;;;;;;5.39;89.16;98225.03;5127021;27;20477;-78
2020/12/14 05:10:53;;;;;;;;;;;;;;;5.45;89.31;98230.03;5108647;27;19916;-77
2020/12/14 05:13:18;;;;;;;;;;;;;;;5.47;89.49;98231.69;5091374;27;20267;-78
2020/12/14 05:15:44;;;;;;;;;;;;;;;5.47;89.38;98227.41;5110036;27;20299;-78
2020/12/14 05:18:16;;;;;;;;;;;;;;;5.48;89.64;98221.44;5107609;27;19983;-79
2020/12/14 05:20:42;;;;;;;;;;;;;;;5.53;89.42;98237.47;5110327;27;19943;-78
2020/12/14 05:23:10;;;;;;;;;;;;;;;5.58;89.72;98235.66;5127919;27;19923;-78
2020/12/14 05:25:36;;;;;;;;;;;;;;;5.52;89.99;98225.59;5128025;27;19937;-78
2020/12/14 05:28:01;;;;;;;;;;;;;;;5.59;89.94;98233.97;5091966;27;19915;-78
2020/12/14 05:30:33;;;;;;;;;;;;;;;5.61;90.03;98235.59;5128928;27;19924;-78
2020/12/14 05:33:00;;;;;;;;;;;;;;;5.66;90.23;98233.75;5129115;27;20345;-78
2020/12/14 05:35:35;;;;;;;;;;;;;;;5.64;90.23;98239.78;5110842;27;19915;-78
2020/12/14 05:38:10;;;;;;;;;;;;;;;5.69;90.29;98232.84;5093202;27;19915;-78
2020/12/14 05:40:36;;;;;;;;;;;;;;;5.66;90.48;98235.47;5126605;27;19922;-78
2020/12/14 05:43:11;;;;;;;;;;;;;;;5.70;90.40;98237.06;5125778;27;19923;-77
2020/12/14 05:45:36;;;;;;;;;;;;;;;5.74;90.48;98245.50;5108671;27;19919;-78
2020/12/14 05:48:02;;;;;;;;;;;;;;;5.70;90.60;98252.38;5109338;27;19919;-78
2020/12/14 05:50:27;;;;;;;;;;;;;;;5.72;90.51;98250.63;5127711;27;20391;-78
2020/12/14 05:52:53;;;;;;;;;;;;;;;5.72;90.56;98242.97;5109361;27;19907;-78
2020/12/14 05:55:21;;;;;;;;;;;;;;;5.75;90.53;98253.13;5109082;27;19919;-78
2020/12/14 05:57:50;;;;;;;;;;;;;;;5.81;90.64;98252.97;5108703;27;19938;-78
2020/12/14 06:00:16;;;;;;;;;;;;;;;5.80;90.75;98243.63;5127820;27;19971;-78
2020/12/14 06:02:41;;;;;;;;;;;;;;;5.85;90.92;98251.19;5109027;28;20015;-78
2020/12/14 06:05:07;;;;;;;;;;;;;;;5.76;91.35;98254.81;5127799;27;19915;-78
2020/12/14 06:07:32;;;;;;;;;;;;;;;5.82;91.11;98259.78;5108587;28;19915;-78
2020/12/14 06:10:03;;;;;;;;;;;;;;;5.79;91.61;98243.66;5110005;28;19918;-78
2020/12/14 06:12:29;;;;;;;;;;;;;;;5.83;91.73;98246.09;5092706;28;19912;-78
2020/12/14 06:14:58;;;;;;;;;;;;;;;5.85;91.87;98248.63;5109264;28;19926;-80
2020/12/14 06:17:23;;;;;;;;;;;;;;;5.93;91.79;98258.66;5092799;28;19911;-79
2020/12/14 06:19:48;;;;;;;;;;;;;;;5.90;91.90;98248.53;5109772;28;19933;-79
2020/12/14 06:22:13;;;;;;;;;;;;;;;5.94;91.88;98252.69;5112922;27;19916;-78
2020/12/14 06:24:39;;;;;;;;;;;;;;;5.92;92.27;98249.31;5114371;27;20109;-79
2020/12/14 06:27:08;;;;;;;;;;;;;;;6.02;92.40;98243.13;5132042;27;20455;-79
2020/12/14 06:29:34;;;;;;;;;;;;;;;5.93;92.43;98241.63;5113816;27;20395;-79
2020/12/14 06:31:59;;;;;;;;;;;;;;;5.99;92.37;98232.97;5113804;27;19916;-79
2020/12/14 06:34:45;;;;;;;;;;;;;;;6.03;92.43;98232.84;5113477;27;20645;-79
2020/12/14 06:37:10;;;;;;;;;;;;;;;6.05;92.60;98230.28;5113503;27;19927;-79
2020/12/14 06:39:41;;;;;;;;;;;;;;;6.00;92.68;98227.00;5096687;27;19934;-79
2020/12/14 06:42:07;;;;;;;;;;;;;;;6.03;92.80;98235.41;5114428;27;19911;-80
2020/12/14 06:44:32;;;;;;;;;;;;;;;5.94;92.91;98232.22;5130060;27;19926;-79
2020/12/14 06:46:57;;;;;;;;;;;;;;;5.97;92.65;98237.28;5113560;27;19920;-79
2020/12/14 06:49:29;;;;;;;;;;;;;;;5.95;92.88;98226.25;5113144;27;19922;-79
2020/12/14 06:51:54;;;;;;;;;;;;;;;5.97;92.84;98232.19;5114525;27;20014;-79
2020/12/14 06:54:40;;;;;;;;;;;;;;;5.94;93.04;98247.56;5132335;27;19950;-79
2020/12/14 06:57:05;;;;;;;;;;;;;;;5.97;93.14;98237.28;5115062;27;19915;-79
2020/12/14 06:59:30;;;;;;;;;;;;;;;5.85;93.17;98240.97;5109698;27;19998;-80
2020/12/14 07:01:56;;;;;;;;;;;;;;;5.90;93.48;98225.53;5088245;27;20355;-80
2020/12/14 07:04:21;;;;;;;;;;;;;;;5.84;93.67;98242.69;5097008;27;20645;-80
2020/12/14 07:06:47;;;;;;;;;;;;;;;5.85;93.62;98229.03;5115080;27;19964;-79
2020/12/14 07:09:28;;;;;;;;;;;;;;;5.87;93.91;98229.81;5132943;27;19922;-79
2020/12/14 07:12:09;;;;;;;;;;;;;;;5.84;94.32;98219.69;5113924;27;19927;-78
2020/12/14 07:14:50;;;;;;;;;;;;;;;5.83;93.95;98230.78;5129421;27;20022;-80
2020/12/14 07:17:22;;;;;;;;;;;;;;;5.85;94.17;98229.03;5111516;27;19922;-80
2020/12/14 07:19:50;;;;;;;;;;;;;;;5.89;94.12;98213.63;5130275;27;19923;-80
2020/12/14 07:22:30;;;;;;;;;;;;;;;5.85;94.38;98229.03;5112357;27;19919;-78
2020/12/14 07:24:58;;;;;;;;;;;;;;;5.87;94.55;98236.66;5111154;27;19926;-79
2020/12/14 07:27:24;;;;;;;;;;;;;;;5.90;94.64;98231.47;5112770;27;19912;-79
2020/12/14 07:29:49;;;;;;;;;;;;;;;5.84;94.54;98232.47;5112224;27;19930;-80
2020/12/14 07:32:20;;;;;;;;;;;;;;;5.89;94.66;98252.78;5128879;27;21042;-83
2020/12/14 07:34:52;;;;;;;;;;;;;;;5.89;94.62;98249.41;5130417;27;20280;-80
2020/12/14 07:37:36;;;;;;;;;;;;;;;5.87;94.10;98257.94;5130033;27;19923;-79
2020/12/14 07:40:02;;;;;;;;;;;;;;;6.01;94.80;98260.16;5131435;27;19955;-79
2020/12/14 07:42:31;;;;;;;;;;;;;;;5.94;94.57;98258.66;5129789;27;19919;-80
2020/12/14 07:45:06;;;;;;;;;;;;;;;6.04;94.76;98264.38;5109662;27;19923;-79
2020/12/14 07:47:31;;;;;;;;;;;;;;;6.11;94.92;98263.31;5111577;27;21064;-80
2020/12/14 07:50:17;;;;;;;;;;;;;;;6.11;94.96;98276.09;5130600;27;20049;-79
2020/12/14 07:52:42;;;;;;;;;;;;;;;6.12;95.04;98280.34;5111948;27;19916;-79
2020/12/14 07:55:11;;;;;;;;;;;;;;;6.14;95.14;98281.16;5130936;27;19911;-80
2020/12/14 07:57:46;;;;;;;;;;;;;;;6.16;95.02;98276.84;5112277;27;19911;-80
2020/12/14 08:00:12;;;;;;;;;;;;;;;6.25;95.21;98280.88;5108427;27;20398;-79
2020/12/14 08:02:38;;;;;;;;;;;;;;;6.29;95.22;98279.91;5105425;27;19964;-78
2020/12/14 08:05:04;;;;;;;;;;;;;;;6.28;95.04;98286.75;5113687;27;20003;-79
2020/12/14 08:07:49;;;;;;;;;;;;;;;6.30;94.93;98285.88;5114229;27;19915;-79
2020/12/14 08:10:15;;;;;;;;;;;;;;;6.38;94.80;98291.63;5131413;27;20011;-79
2020/12/14 08:12:41;;;;;;;;;;;;;;;6.39;95.10;98280.53;5132028;27;19954;-79
2020/12/14 08:15:06;;;;;;;;;;;;;;;6.42;95.29;98275.31;5113241;27;19979;-79
2020/12/14 08:17:33;;;;;;;;;;;;;;;6.39;95.30;98272.84;5125227;27;20388;-78
2020/12/14 08:19:59;;;;;;;;;;;;;;;6.51;95.10;98271.69;5113901;27;20321;-79
2020/12/14 08:22:30;;;;;;;;;;;;;;;6.54;95.36;98269.84;5114144;27;19929;-79
2020/12/14 08:24:56;;;;;;;;;;;;;;;6.48;94.81;98270.88;5095522;27;20933;-79
2020/12/14 08:27:24;;;;;;;;;;;;;;;6.64;94.68;98275.56;5113104;27;19915;-80
2020/12/14 08:29:50;;;;;;;;;;;;;;;6.57;94.64;98287.69;5113124;27;19920;-79
2020/12/14 08:32:15;;;;;;;;;;;;;;;6.69;95.15;98272.00;5095338;27;20018;-79
2020/12/14 08:34:40;;;;;;;;;;;;;;;6.68;94.07;98278.00;5114181;27;19916;-80
2020/12/14 08:37:06;;;;;;;;;;;;;;;6.71;94.50;98277.09;5112255;27;20391;-80
2020/12/14 08:39:32;;;;;;;;;;;;;;;6.75;94.65;98282.94;5095188;27;19919;-79
2020/12/14 08:42:03;;;;;;;;;;;;;;;6.75;94.92;98281.25;5131513;27;20372;-79
2020/12/14 08:44:28;;;;;;;;;;;;;;;6.79;94.95;98287.91;5129711;27;20946;-79
2020/12/14 08:46:53;;;;;;;;;;;;;;;6.83;94.82;98286.97;5113883;27;19920;-79
2020/12/14 08:49:19;;;;;;;;;;;;;;;6.86;95.12;98296.28;5097902;27;19922;-79
2020/12/14 08:51:44;;;;;;;;;;;;;;;6.81;94.86;98293.00;5100227;27;19917;-79
2020/12/14 08:54:11;;;;;;;;;;;;;;;6.82;94.86;98289.56;5114120;27;19912;-80
2020/12/14 08:56:36;;;;;;;;;;;;;;;6.95;95.52;98301.13;5114232;27;19975;-80
2020/12/14 08:59:01;;;;;;;;;;;;;;;6.83;96.36;98292.06;5096307;27;20373;-80
2020/12/14 09:01:30;;;;;;;;;;;;;;;6.84;97.08;98305.72;5112704;27;19915;-79
2020/12/14 09:03:56;;;;;;;;;;;;;;;6.77;97.33;98311.88;5112562;27;19929;-81
2020/12/14 09:06:27;;;;;;;;;;;;;;;6.79;97.88;98315.25;5130733;27;19915;-81
2020/12/14 09:09:05;;;;;;;;;;;;;;;6.70;98.63;98314.63;5112452;27;20367;-82
2020/12/14 09:11:31;;;;;;;;;;;;;;;6.70;99.84;98317.19;5095438;27;19965;-80
2020/12/14 09:13:57;;;;;;;;;;;;;;;6.73;100.00;98315.41;5113123;27;19915;-82
2020/12/14 09:16:41;;;;;;;;;;;;;;;6.63;100.00;98320.78;5113769;27;19958;-83
2020/12/14 09:19:06;;;;;;;;;;;;;;;6.63;100.00;98330.16;5128170;27;20433;-83
2020/12/14 09:21:32;;;;;;;;;;;;;;;6.69;100.00;98325.72;5096161;27;19915;-82
2020/12/14 09:24:08;;;;;;;;;;;;;;;6.65;100.00;98329.25;5130613;27;19968;-81
2020/12/14 09:26:33;;;;;;;;;;;;;;;6.63;100.00;98332.72;5130077;27;19919;-81
2020/12/14 09:28:59;;;;;;;;;;;;;;;6.70;100.00;98326.56;5112542;27;19918;-81
2020/12/14 09:31:25;;;;;;;;;;;;;;;6.73;100.00;98325.63;5112644;27;20423;-82
2020/12/14 09:33:50;;;;;;;;;;;;;;;6.71;100.00;98323.13;5130748;27;19964;-80
2020/12/14 09:36:16;;;;;;;;;;;;;;;6.78;100.00;98332.31;5112629;27;19911;-82
2020/12/14 09:38:41;;;;;;;;;;;;;;;6.77;100.00;98332.34;5111744;27;19923;-79
2020/12/14 09:41:06;;;;;;;;;;;;;;;6.83;100.00;98329.63;5095271;27;19919;-82
2020/12/14 09:43:31;;;;;;;;;;;;;;;6.82;100.00;98335.63;5111287;27;19930;-81
2020/12/14 09:45:57;;;;;;;;;;;;;;;6.91;100.00;98335.34;5094536;27;20755;-81
2020/12/14 09:48:22;;;;;;;;;;;;;;;6.93;100.00;98343.84;5131239;27;19916;-81
2020/12/14 09:50:47;;;;;;;;;;;;;;;6.84;100.00;98337.28;5094696;27;20272;-82
2020/12/14 09:53:13;;;;;;;;;;;;;;;6.82;100.00;98331.38;5112301;27;19959;-81
2020/12/14 09:55:41;;;;;;;;;;;;;;;6.84;100.00;98328.75;5111871;27;20391;-81
2020/12/14 09:58:06;;;;;;;;;;;;;;;6.87;100.00;98313.31;5095420;27;19927;-81
2020/12/14 10:00:32;;;;;;;;;;;;;;;6.87;100.00;98337.19;5111137;27;20369;-78
2020/12/14 10:02:57;;;;;;;;;;;;;;;6.86;100.00;98322.69;5111653;28;19915;-78
2020/12/14 10:05:22;;;;;;;;;;;;;;;6.91;100.00;98336.22;5111767;28;20343;-78
2020/12/14 10:07:48;;;;;;;;;;;;;;;6.87;100.00;98341.47;5112389;28;19911;-78
2020/12/14 10:10:13;;;;;;;;;;;;;;;6.90;100.00;98339.66;5111506;28;19912;-79
2020/12/14 10:12:41;;;;;;;;;;;;;;;6.92;100.00;98326.81;5112365;28;19911;-78
2020/12/14 10:15:09;;;;;;;;;;;;;;;6.89;100.00;98334.59;5130296;28;19915;-79
2020/12/14 10:17:34;;;;;;;;;;;;;;;6.93;100.00;98328.47;5111757;28;20431;-78
2020/12/14 10:19:59;;;;;;;;;;;;;;;7.05;100.00;98337.56;5111356;28;19920;-79
2020/12/14 10:25:44;;;;;;;;;;;;;;;7.14;100.00;98342.41;5027410;28;19967;-79
2020/12/14 10:28:09;;;;;;;;;;;;;;;7.16;100.00;98342.34;5078783;28;20305;-77
2020/12/14 10:30:35;;;;;;;;;;;;;;;7.14;100.00;98350.09;5089018;28;19919;-79
2020/12/14 10:33:01;;;;;;;;;;;;;;;7.19;100.00;98326.91;5088285;28;19915;-79
2020/12/14 10:35:26;;;;;;;;;;;;;;;7.26;99.72;98343.78;5122753;28;19916;-79
2020/12/14 10:37:54;;;;;;;;;;;;;;;7.26;100.00;98333.53;5089143;28;19922;-82
2020/12/14 10:40:19;;;;;;;;;;;;;;;7.30;99.40;98345.38;5102811;28;19927;-80
2020/12/14 10:42:45;;;;;;;;;;;;;;;7.16;99.83;98345.78;5105625;28;19919;-78
2020/12/14 10:45:10;;;;;;;;;;;;;;;7.32;100.00;98341.88;5108907;28;20514;-79
2020/12/14 10:47:36;;;;;;;;;;;;;;;7.34;98.78;98349.50;5092668;28;20006;-79
2020/12/14 10:50:02;;;;;;;;;;;;;;;7.29;99.49;98336.84;5108581;28;19921;-80
2020/12/14 10:52:28;;;;;;;;;;;;;;;7.38;98.94;98345.97;5092561;28;19916;-82
2020/12/14 10:54:53;;;;;;;;;;;;;;;7.42;98.87;98347.56;5109907;28;19915;-79
2020/12/14 10:57:18;;;;;;;;;;;;;;;7.51;99.62;98360.09;5106401;28;19927;-79
2020/12/14 10:59:44;;;;;;;;;;;;;;;7.42;99.84;98347.56;5091112;28;19944;-79
2020/12/14 11:02:10;;;;;;;;;;;;;;;7.52;98.59;98346.38;5108000;28;19937;-78
2020/12/14 11:04:35;;;;;;;;;;;;;;;7.46;98.00;98354.28;5092381;28;19922;-81
2020/12/14 11:07:03;;;;;;;;;;;;;;;7.59;100.00;98356.47;5107658;28;19924;-79
2020/12/14 11:09:28;;;;;;;;;;;;;;;7.66;98.78;98360.50;5129668;27;19965;-78
2020/12/14 11:11:53;;;;;;;;;;;;;;;7.60;98.46;98337.66;5094110;27;19967;-78
2020/12/14 11:14:19;;;;;;;;;;;;;;;7.77;99.55;98337.97;5113152;27;19926;-79
2020/12/14 11:16:45;;;;;;;;;;;;;;;7.72;97.78;98347.53;5113592;27;20399;-79
2020/12/14 11:19:10;;;;;;;;;;;;;;;7.87;99.77;98349.63;5112587;27;19936;-79
2020/12/14 11:21:35;;;;;;;;;;;;;;;7.80;99.27;98347.28;5096999;27;20261;-79
2020/12/14 11:24:01;;;;;;;;;;;;;;;7.87;99.55;98344.47;5112545;27;19916;-79
2020/12/14 11:26:26;;;;;;;;;;;;;;;7.79;99.15;98331.06;5133347;27;19918;-80
2020/12/14 11:28:51;;;;;;;;;;;;;;;7.83;99.90;98342.91;5131925;27;19915;-78
2020/12/14 11:31:17;;;;;;;;;;;;;;;7.80;99.35;98343.00;5130080;27;19919;-79
2020/12/14 11:33:42;;;;;;;;;;;;;;;7.85;99.21;98336.00;5131476;27;19915;-80
2020/12/14 11:36:09;;;;;;;;;;;;;;;7.91;99.61;98330.69;5112064;27;20311;-79
2020/12/14 11:38:36;;;;;;;;;;;;;;;7.84;98.97;98331.75;5111641;27;19968;-79
2020/12/14 11:41:02;;;;;;;;;;;;;;;7.91;99.57;98335.81;5130191;27;19919;-78
2020/12/14 11:43:27;;;;;;;;;;;;;;;7.87;98.43;98334.22;5111112;27;20375;-78
2020/12/14 11:45:52;;;;;;;;;;;;;;;7.84;98.56;98313.81;5085670;28;19973;-80
2020/12/14 11:48:18;;;;;;;;;;;;;;;7.93;98.95;98318.63;5099455;28;19946;-78
2020/12/14 11:50:43;;;;;;;;;;;;;;;7.92;97.76;98331.53;5080016;28;19977;-80
2020/12/14 11:53:09;;;;;;;;;;;;;;;7.96;99.21;98323.69;5098705;28;19965;-79
2020/12/14 11:55:35;;;;;;;;;;;;;;;7.93;99.45;98328.06;5096835;27;20280;-78
2020/12/14 11:58:00;;;;;;;;;;;;;;;8.02;98.91;98330.31;5101442;28;19916;-78
2020/12/14 12:00:26;;;;;;;;;;;;;;;8.10;98.82;98323.22;5082703;28;19920;-79
2020/12/14 12:02:51;;;;;;;;;;;;;;;8.10;97.62;98330.91;5082832;28;19924;-79
2020/12/14 12:05:16;;;;;;;;;;;;;;;8.11;96.89;98326.63;5081203;28;20374;-79
2020/12/14 12:07:42;;;;;;;;;;;;;;;8.24;97.85;98327.91;5075860;28;20053;-79
2020/12/14 12:10:09;;;;;;;;;;;;;;;8.26;96.55;98326.13;5082056;28;19947;-79
2020/12/14 12:12:37;;;;;;;;;;;;;;;8.40;97.97;98323.13;5100642;28;20277;-78
2020/12/14 12:15:03;;;;;;;;;;;;;;;8.40;96.96;98323.13;5098506;28;19920;-79
2020/12/14 12:21:01;;;;;;;;;;;;;;;8.43;95.75;98315.31;5024218;28;19928;-77
2020/12/14 12:23:26;;;;;;;;;;;;;;;8.53;95.88;98313.25;5094999;28;19916;-79
2020/12/14 12:25:51;;;;;;;;;;;;;;;8.48;95.33;98299.75;5098745;28;20347;-77
2020/12/14 12:28:17;;;;;;;;;;;;;;;8.51;95.50;98302.25;5074886;28;19993;-79
2020/12/14 12:30:42;;;;;;;;;;;;;;;8.52;96.67;98296.19;5073689;28;19998;-79
2020/12/14 12:33:07;;;;;;;;;;;;;;;8.46;96.36;98291.28;5081351;28;20319;-79
2020/12/14 12:35:33;;;;;;;;;;;;;;;8.47;96.83;98282.69;5098759;28;19952;-79
2020/12/14 12:37:58;;;;;;;;;;;;;;;8.52;96.83;98297.03;5081154;28;19958;-79
2020/12/14 12:40:23;;;;;;;;;;;;;;;8.41;95.82;98294.00;5081950;28;19921;-79
2020/12/14 12:42:49;;;;;;;;;;;;;;;8.45;96.61;98294.75;5073200;28;19950;-79
2020/12/14 12:45:14;;;;;;;;;;;;;;;8.42;95.95;98280.28;5118356;27;19930;-79
2020/12/14 12:47:39;;;;;;;;;;;;;;;8.47;96.06;98282.69;5104215;27;19975;-79
2020/12/14 12:50:05;;;;;;;;;;;;;;;8.55;96.08;98288.38;5128555;27;19926;-79
2020/12/14 12:52:30;;;;;;;;;;;;;;;8.49;95.88;98291.19;5093159;27;20443;-79
2020/12/14 12:54:56;;;;;;;;;;;;;;;8.51;96.54;98297.09;5108744;27;19916;-78
2020/12/14 12:57:22;;;;;;;;;;;;;;;8.43;95.70;98286.25;5093655;27;20556;-79